createdAt,value
2018-11-14T00:00:23.346Z,25.79
2018-11-14T00:02:50.084Z,25.85
2018-11-14T00:05:16.726Z,25.80
2018-11-14T00:07:43.379Z,25.79
2018-11-14T00:10:13.030Z,25.77
2018-11-14T00:12:39.717Z,25.78
2018-11-14T00:15:06.524Z,25.77
2018-11-14T00:17:33.232Z,25.71
2018-11-14T00:20:02.792Z,25.69
2018-11-14T00:22:29.569Z,25.67
2018-11-14T00:24:56.341Z,25.67
2018-11-14T00:27:23.049Z,25.67
2018-11-14T00:29:49.787Z,25.63
2018-11-14T00:32:16.538Z,25.64
2018-11-14T00:34:46.038Z,25.60
2018-11-14T00:37:12.622Z,25.60
2018-11-14T00:39:39.274Z,25.59
2018-11-14T00:42:05.985Z,25.59
2018-11-14T00:44:32.791Z,25.58
2018-11-14T00:46:59.456Z,25.58
2018-11-14T00:49:26.110Z,25.54
2018-11-14T00:51:52.912Z,25.49
2018-11-14T00:54:19.586Z,25.50
2018-11-14T00:56:46.293Z,25.47
2018-11-14T00:59:12.933Z,25.45
2018-11-14T01:01:43.079Z,25.46
2018-11-14T01:04:12.979Z,25.45
2018-11-14T01:06:39.604Z,25.43
2018-11-14T01:09:06.356Z,25.43
2018-11-14T01:11:32.975Z,25.39
2018-11-14T01:13:59.775Z,25.42
2018-11-14T01:16:26.422Z,25.33
2018-11-14T01:18:53.159Z,25.34
2018-11-14T01:21:19.896Z,25.33
2018-11-14T01:23:46.744Z,25.28
2018-11-14T01:26:13.403Z,25.33
2018-11-14T01:28:40.054Z,25.26
2018-11-14T01:31:06.819Z,25.25
2018-11-14T01:33:33.507Z,25.30
2018-11-14T01:36:00.226Z,25.26
2018-11-14T01:38:26.871Z,25.24
2018-11-14T01:40:53.521Z,25.22
2018-11-14T01:43:20.242Z,25.20
2018-11-14T01:45:46.947Z,25.22
2018-11-14T01:48:13.668Z,25.15
2018-11-14T01:50:42.548Z,25.16
2018-11-14T01:53:07.102Z,25.16
2018-11-14T01:55:34.783Z,25.16
2018-11-14T01:58:00.410Z,25.18
2018-11-14T02:00:27.122Z,25.15
2018-11-14T02:02:53.886Z,25.08
2018-11-14T02:05:20.559Z,25.09
2018-11-14T02:07:47.265Z,25.07
2018-11-14T02:10:13.939Z,25.08
2018-11-14T02:12:40.653Z,25.04
2018-11-14T02:15:07.311Z,25.04
2018-11-14T02:17:34.036Z,25.00
2018-11-14T02:20:03.566Z,25.03
2018-11-14T02:22:30.468Z,25.00
2018-11-14T02:24:59.014Z,24.95
2018-11-14T02:27:23.781Z,24.93
2018-11-14T02:29:50.560Z,24.96
2018-11-14T02:32:17.221Z,24.95
2018-11-14T02:34:46.782Z,24.91
2018-11-14T02:37:13.435Z,24.93
2018-11-14T02:39:40.254Z,24.90
2018-11-14T02:42:06.952Z,24.92
2018-11-14T02:44:33.655Z,24.93
2018-11-14T02:47:00.396Z,24.91
2018-11-14T02:49:27.061Z,24.92
2018-11-14T02:51:53.698Z,24.92
2018-11-14T02:54:20.397Z,24.87
2018-11-14T02:56:47.093Z,24.88
2018-11-14T02:59:13.834Z,24.86
2018-11-14T03:01:40.483Z,24.87
2018-11-14T03:04:07.191Z,24.83
2018-11-14T03:06:33.940Z,24.88
2018-11-14T03:09:01.859Z,24.87
2018-11-14T03:11:27.383Z,24.91
2018-11-14T03:13:54.096Z,24.91
2018-11-14T03:16:20.836Z,24.90
2018-11-14T03:18:47.564Z,24.89
2018-11-14T03:21:14.384Z,24.91
2018-11-14T03:23:41.058Z,24.88
2018-11-14T03:26:07.673Z,24.86
2018-11-14T03:28:38.788Z,24.84
2018-11-14T03:31:04.956Z,24.85
2018-11-14T03:33:31.673Z,24.88
2018-11-14T03:35:58.330Z,24.90
2018-11-14T03:38:25.053Z,24.89
2018-11-14T03:40:51.763Z,25.04
2018-11-14T03:43:18.415Z,24.87
2018-11-14T03:45:46.406Z,25.02
2018-11-14T03:48:11.925Z,25.10
2018-11-14T03:50:38.636Z,25.16
2018-11-14T03:53:05.329Z,25.23
2018-11-14T03:55:31.984Z,25.14
2018-11-14T03:57:58.708Z,25.07
2018-11-14T04:00:25.352Z,25.05
2018-11-14T04:02:52.018Z,25.07
2018-11-14T04:05:18.883Z,25.04
2018-11-14T04:07:45.486Z,25.00
2018-11-14T04:10:12.209Z,25.10
2018-11-14T04:12:38.918Z,24.93
2018-11-14T04:15:05.617Z,25.48
2018-11-14T04:17:35.083Z,26.03
2018-11-14T04:19:59.634Z,26.15
2018-11-14T04:22:26.398Z,26.18
2018-11-14T04:24:53.091Z,26.27
2018-11-14T04:27:22.623Z,26.43
2018-11-14T04:29:46.756Z,26.27
2018-11-14T04:32:13.507Z,26.40
2018-11-14T04:34:40.278Z,26.05
2018-11-14T04:37:06.936Z,25.78
2018-11-14T04:39:33.662Z,25.64
2018-11-14T04:42:00.315Z,25.37
2018-11-14T04:44:27.024Z,25.18
2018-11-14T04:46:53.750Z,25.04
2018-11-14T04:49:20.461Z,25.04
2018-11-14T04:51:47.256Z,24.98
2018-11-14T04:54:13.887Z,24.94
2018-11-14T04:56:40.598Z,24.90
2018-11-14T04:59:07.296Z,24.86
2018-11-14T05:01:33.986Z,24.82
2018-11-14T05:04:00.658Z,24.79
2018-11-14T05:06:27.352Z,24.72
2018-11-14T05:08:54.040Z,24.79
2018-11-14T05:11:20.827Z,24.64
2018-11-14T05:13:47.533Z,24.75
2018-11-14T05:16:14.229Z,24.81
2018-11-14T05:18:40.978Z,25.04
2018-11-14T05:21:07.629Z,24.79
2018-11-14T05:23:34.363Z,24.83
2018-11-14T05:26:01.097Z,24.97
2018-11-14T05:28:28.961Z,24.97
2018-11-14T05:30:54.418Z,24.99
2018-11-14T05:33:21.120Z,25.12
2018-11-14T05:35:47.762Z,25.11
2018-11-14T05:38:14.510Z,25.13
2018-11-14T05:40:41.152Z,25.20
2018-11-14T05:43:07.910Z,25.16
2018-11-14T05:45:34.682Z,25.19
2018-11-14T05:48:01.389Z,25.26
2018-11-14T05:50:28.134Z,25.09
2018-11-14T05:52:54.882Z,25.00
2018-11-14T05:55:21.717Z,25.25
2018-11-14T05:57:48.369Z,25.25
2018-11-14T06:00:15.239Z,25.22
2018-11-14T06:02:42.013Z,25.08
2018-11-14T06:05:08.676Z,25.19
2018-11-14T06:07:35.366Z,25.20
2018-11-14T06:10:02.029Z,25.20
2018-11-14T06:12:28.773Z,25.16
2018-11-14T06:14:58.222Z,25.17
2018-11-14T06:17:24.878Z,25.16
2018-11-14T06:19:51.588Z,25.26
2018-11-14T06:22:18.322Z,25.34
2018-11-14T06:24:45.127Z,25.34
2018-11-14T06:27:11.773Z,25.48
2018-11-14T06:29:38.512Z,25.44
2018-11-14T06:32:05.251Z,25.68
2018-11-14T06:34:31.940Z,25.70
2018-11-14T06:36:58.670Z,25.70
2018-11-14T06:39:25.448Z,25.75
2018-11-14T06:41:52.229Z,25.80
2018-11-14T06:44:18.958Z,25.85
2018-11-14T06:46:45.709Z,25.85
2018-11-14T06:49:15.282Z,25.85
2018-11-14T06:51:41.995Z,25.77
2018-11-14T06:54:08.823Z,25.92
2018-11-14T06:56:35.580Z,26.07
2018-11-14T06:59:02.335Z,25.80
2018-11-14T07:01:28.994Z,25.83
2018-11-14T07:03:55.629Z,25.85
2018-11-14T07:06:23.724Z,25.92
2018-11-14T07:08:50.100Z,25.84
2018-11-14T07:11:16.853Z,25.91
2018-11-14T07:13:43.574Z,25.93
2018-11-14T07:16:10.243Z,25.90
2018-11-14T07:18:36.952Z,25.94
2018-11-14T07:21:03.691Z,25.92
2018-11-14T07:23:30.476Z,25.92
2018-11-14T07:25:57.091Z,26.17
2018-11-14T07:28:24.013Z,26.24
2018-11-14T07:30:50.643Z,26.03
2018-11-14T07:33:17.321Z,25.97
2018-11-14T07:35:44.165Z,26.24
2018-11-14T07:38:10.840Z,26.09
2018-11-14T07:40:40.391Z,26.16
2018-11-14T07:43:07.099Z,26.22
2018-11-14T07:45:33.761Z,26.01
2018-11-14T07:48:00.402Z,25.90
2018-11-14T07:50:28.327Z,25.94
2018-11-14T07:52:55.041Z,25.91
2018-11-14T07:55:23.061Z,26.11
2018-11-14T07:57:48.399Z,26.08
2018-11-14T08:00:15.078Z,25.93
2018-11-14T08:02:41.835Z,25.92
2018-11-14T08:05:08.970Z,26.05
2018-11-14T08:07:35.690Z,26.08
2018-11-14T08:10:02.333Z,25.98
2018-11-14T08:12:28.990Z,25.81
2018-11-14T08:14:56.737Z,25.88
2018-11-14T08:17:23.565Z,25.81
2018-11-14T08:19:50.225Z,25.72
2018-11-14T08:22:17.284Z,25.93
2018-11-14T08:24:46.353Z,25.91
2018-11-14T08:27:12.967Z,25.72
2018-11-14T08:29:39.956Z,25.79
2018-11-14T08:32:06.600Z,25.81
2018-11-14T08:34:33.251Z,25.77
2018-11-14T08:37:00.060Z,25.82
2018-11-14T08:39:26.868Z,25.88
2018-11-14T08:41:55.883Z,25.88
2018-11-14T08:44:22.605Z,25.88
2018-11-14T08:46:52.164Z,25.95
2018-11-14T08:49:18.978Z,25.93
2018-11-14T08:51:45.676Z,25.89
2018-11-14T08:54:13.227Z,26.00
2018-11-14T08:56:39.884Z,26.01
2018-11-14T08:59:06.690Z,25.92
2018-11-14T09:01:34.060Z,25.93
2018-11-14T09:04:00.740Z,25.96
2018-11-14T09:06:27.450Z,26.07
2018-11-14T09:08:54.118Z,26.02
2018-11-14T09:11:20.886Z,26.10
2018-11-14T09:13:51.015Z,26.06
2018-11-14T09:16:16.482Z,26.23
2018-11-14T09:18:43.217Z,26.36
2018-11-14T09:21:10.117Z,26.25
2018-11-14T09:23:36.861Z,26.46
2018-11-14T09:26:03.678Z,26.05
2018-11-14T09:28:30.387Z,26.36
2018-11-14T09:30:57.062Z,26.27
2018-11-14T09:33:23.800Z,26.35
2018-11-14T09:35:51.088Z,26.28
2018-11-14T09:38:17.827Z,26.40
2018-11-14T09:40:44.627Z,26.52
2018-11-14T09:43:11.280Z,26.47
2018-11-14T09:45:37.994Z,26.54
2018-11-14T09:48:04.728Z,26.51
2018-11-14T09:50:32.668Z,26.35
2018-11-14T09:52:58.327Z,26.54
2018-11-14T09:55:25.043Z,26.61
2018-11-14T09:57:51.880Z,26.51
2018-11-14T10:00:18.612Z,26.31
2018-11-14T10:02:48.243Z,26.36
2018-11-14T10:05:15.083Z,26.69
2018-11-14T10:07:41.890Z,26.74
2018-11-14T10:10:08.595Z,26.51
2018-11-14T10:12:35.336Z,26.89
2018-11-14T10:15:03.736Z,26.50
2018-11-14T10:17:28.788Z,26.52
2018-11-14T10:19:56.565Z,26.80
2018-11-14T10:22:25.458Z,26.75
2018-11-14T10:24:49.984Z,27.00
2018-11-14T10:27:16.724Z,26.66
2018-11-14T10:29:43.370Z,26.89
2018-11-14T10:32:10.113Z,26.99
2018-11-14T10:34:36.771Z,26.87
2018-11-14T10:37:03.487Z,27.16
2018-11-14T10:39:30.190Z,27.63
2018-11-14T10:41:57.882Z,27.73
2018-11-14T10:44:23.599Z,27.60
2018-11-14T10:46:50.318Z,27.90
2018-11-14T10:49:17.025Z,27.48
2018-11-14T10:51:43.749Z,27.47
2018-11-14T10:54:10.458Z,27.22
2018-11-14T10:56:37.200Z,27.51
2018-11-14T10:59:03.932Z,27.51
2018-11-14T11:01:30.726Z,27.52
2018-11-14T11:03:57.457Z,27.35
2018-11-14T11:06:24.121Z,27.24
2018-11-14T11:08:53.323Z,27.44
2018-11-14T11:11:17.802Z,27.48
2018-11-14T11:13:44.546Z,27.34
2018-11-14T11:16:14.084Z,27.30
2018-11-14T11:18:40.738Z,27.41
2018-11-14T11:21:07.544Z,27.54
2018-11-14T11:23:34.283Z,27.52
2018-11-14T11:26:00.879Z,27.64
2018-11-14T11:28:27.741Z,27.40
2018-11-14T11:30:54.409Z,27.60
2018-11-14T11:33:21.204Z,27.85
2018-11-14T11:35:47.858Z,27.67
2018-11-14T11:38:14.703Z,28.12
2018-11-14T11:40:41.354Z,28.14
2018-11-14T11:43:08.181Z,27.74
2018-11-14T11:45:34.964Z,27.96
2018-11-14T11:48:01.610Z,28.46
2018-11-14T11:50:28.318Z,28.60
2018-11-14T11:52:55.129Z,28.60
2018-11-14T11:55:21.783Z,28.34
2018-11-14T11:57:48.519Z,28.25
2018-11-14T12:00:15.340Z,27.93
2018-11-14T12:02:41.999Z,27.94
2018-11-14T12:05:08.752Z,28.01
2018-11-14T12:07:38.226Z,28.09
2018-11-14T12:10:04.913Z,27.98
2018-11-14T12:12:31.826Z,27.97
2018-11-14T12:14:58.553Z,28.00
2018-11-14T12:17:25.259Z,27.92
2018-11-14T12:19:51.993Z,28.02
2018-11-14T12:22:18.690Z,27.83
2018-11-14T12:24:48.370Z,27.90
2018-11-14T12:27:15.116Z,28.12
2018-11-14T12:29:41.826Z,27.87
2018-11-14T12:32:08.571Z,28.01
2018-11-14T12:34:35.272Z,27.96
2018-11-14T12:37:02.060Z,27.73
2018-11-14T12:39:28.814Z,28.10
2018-11-14T12:41:56.029Z,28.28
2018-11-14T12:44:22.786Z,28.31
2018-11-14T12:46:49.479Z,28.08
2018-11-14T12:49:16.334Z,28.08
2018-11-14T12:51:45.648Z,28.18
2018-11-14T12:54:12.391Z,28.15
2018-11-14T12:56:39.036Z,28.19
2018-11-14T12:59:05.873Z,28.37
2018-11-14T13:01:34.208Z,28.52
2018-11-14T13:03:59.348Z,28.44
2018-11-14T13:06:26.165Z,28.40
2018-11-14T13:08:52.923Z,28.42
2018-11-14T13:11:19.824Z,28.56
2018-11-14T13:13:46.514Z,28.51
2018-11-14T13:16:13.271Z,28.36
2018-11-14T13:18:40.034Z,28.53
2018-11-14T13:21:06.748Z,28.58
2018-11-14T13:23:33.640Z,28.50
2018-11-14T13:26:00.380Z,28.65
2018-11-14T13:28:27.140Z,28.71
2018-11-14T13:30:53.972Z,28.61
2018-11-14T13:33:20.805Z,28.59
2018-11-14T13:35:47.546Z,28.78
2018-11-14T13:38:14.225Z,28.85
2018-11-14T13:40:40.982Z,28.88
2018-11-14T13:43:07.820Z,28.79
2018-11-14T13:45:34.454Z,28.72
2018-11-14T13:48:01.148Z,28.64
2018-11-14T13:50:28.119Z,28.87
2018-11-14T13:52:56.180Z,28.94
2018-11-14T13:55:21.619Z,29.15
2018-11-14T13:57:48.401Z,28.97
2018-11-14T14:00:15.243Z,29.08
2018-11-14T14:02:41.984Z,29.26
2018-11-14T14:05:08.760Z,29.41
2018-11-14T14:07:35.534Z,29.31
2018-11-14T14:10:02.237Z,29.11
2018-11-14T14:12:31.737Z,29.17
2018-11-14T14:14:58.506Z,29.29
2018-11-14T14:17:25.310Z,29.07
2018-11-14T14:19:52.080Z,29.01
2018-11-14T14:22:18.853Z,29.15
2018-11-14T14:24:46.367Z,29.33
2018-11-14T14:27:13.154Z,29.21
2018-11-14T14:29:39.945Z,29.32
2018-11-14T14:32:06.710Z,29.09
2018-11-14T14:34:33.482Z,29.27
2018-11-14T14:37:00.337Z,29.22
2018-11-14T14:39:27.075Z,29.23
2018-11-14T14:41:54.500Z,29.21
2018-11-14T14:44:22.560Z,29.13
2018-11-14T14:46:47.989Z,29.20
2018-11-14T14:49:14.781Z,29.23
2018-11-14T14:51:41.449Z,29.19
2018-11-14T14:54:10.301Z,29.48
2018-11-14T14:56:37.084Z,29.32
2018-11-14T14:59:03.827Z,29.47
2018-11-14T15:01:30.733Z,29.27
2018-11-14T15:04:00.428Z,29.21
2018-11-14T15:06:29.269Z,29.09
2018-11-14T15:08:53.876Z,29.18
2018-11-14T15:11:20.647Z,29.15
2018-11-14T15:13:47.579Z,29.48
2018-11-14T15:16:14.277Z,29.31
2018-11-14T15:18:40.975Z,29.25
2018-11-14T15:21:07.734Z,29.14
2018-11-14T15:23:34.465Z,29.08
2018-11-14T15:26:01.361Z,29.09
2018-11-14T15:28:28.132Z,29.05
2018-11-14T15:30:54.844Z,29.04
2018-11-14T15:33:24.467Z,29.01
2018-11-14T15:35:51.249Z,28.99
2018-11-14T15:38:17.968Z,29.06
2018-11-14T15:40:47.952Z,28.96
2018-11-14T15:43:17.285Z,29.17
2018-11-14T15:45:44.009Z,29.02
2018-11-14T15:48:10.702Z,29.05
2018-11-14T15:50:42.403Z,28.93
2018-11-14T15:53:07.714Z,28.84
2018-11-14T15:55:34.403Z,28.88
2018-11-14T15:58:01.251Z,28.82
2018-11-14T16:00:27.844Z,28.79
2018-11-14T16:02:54.633Z,28.77
2018-11-14T16:05:21.520Z,28.73
2018-11-14T16:07:48.192Z,28.74
2018-11-14T16:10:14.973Z,28.75
2018-11-14T16:12:41.662Z,28.70
2018-11-14T16:15:11.210Z,28.58
2018-11-14T16:17:38.112Z,28.62
2018-11-14T16:20:04.916Z,28.56
2018-11-14T16:22:31.757Z,28.67
2018-11-14T16:24:58.621Z,28.69
2018-11-14T16:27:25.246Z,28.66
2018-11-14T16:29:51.980Z,28.63
2018-11-14T16:32:18.842Z,28.44
2018-11-14T16:34:45.586Z,28.49
2018-11-14T16:37:12.402Z,28.48
2018-11-14T16:39:39.107Z,28.45
2018-11-14T16:42:05.963Z,28.37
2018-11-14T16:44:32.782Z,28.24
2018-11-14T16:46:59.426Z,28.41
2018-11-14T16:49:28.705Z,28.29
2018-11-14T16:51:55.468Z,28.27
2018-11-14T16:54:22.313Z,28.29
2018-11-14T16:56:49.080Z,28.34
2018-11-14T16:59:15.782Z,28.21
2018-11-14T17:01:42.571Z,28.16
2018-11-14T17:04:09.295Z,28.12
2018-11-14T17:06:36.129Z,28.10
2018-11-14T17:09:02.829Z,28.05
2018-11-14T17:11:30.183Z,28.05
2018-11-14T17:13:59.844Z,27.98
2018-11-14T17:16:26.589Z,27.96
2018-11-14T17:18:53.321Z,27.91
2018-11-14T17:21:20.034Z,27.85
2018-11-14T17:23:46.682Z,27.83
2018-11-14T17:26:13.425Z,27.77
2018-11-14T17:28:40.072Z,27.78
2018-11-14T17:31:06.790Z,27.73
2018-11-14T17:33:33.481Z,27.71
2018-11-14T17:36:00.262Z,27.62
2018-11-14T17:38:27.009Z,27.65
2018-11-14T17:40:53.722Z,27.55
2018-11-14T17:43:20.614Z,27.51
2018-11-14T17:45:50.354Z,27.43
2018-11-14T17:48:19.903Z,27.44
2018-11-14T17:50:46.584Z,27.41
2018-11-14T17:53:14.636Z,27.39
2018-11-14T17:55:40.045Z,27.37
2018-11-14T17:58:06.850Z,27.36
2018-11-14T18:00:33.517Z,27.33
2018-11-14T18:03:00.393Z,27.24
2018-11-14T18:05:26.894Z,27.22
2018-11-14T18:07:53.615Z,27.20
2018-11-14T18:10:21.656Z,27.12
2018-11-14T18:12:47.195Z,27.15
2018-11-14T18:15:16.241Z,27.05
2018-11-14T18:17:40.656Z,27.08
2018-11-14T18:20:07.314Z,27.01
2018-11-14T18:22:34.019Z,26.98
2018-11-14T18:25:00.738Z,26.94
2018-11-14T18:27:27.451Z,26.95
2018-11-14T18:29:54.164Z,26.91
2018-11-14T18:32:20.760Z,26.86
2018-11-14T18:34:47.487Z,26.86
2018-11-14T18:37:14.199Z,26.84
2018-11-14T18:39:40.973Z,26.83
2018-11-14T18:42:07.609Z,26.79
2018-11-14T18:44:34.289Z,26.80
2018-11-14T18:47:01.015Z,26.74
2018-11-14T18:49:27.781Z,26.58
2018-11-14T18:51:54.449Z,26.73
2018-11-14T18:54:21.166Z,26.74
2018-11-14T18:56:47.828Z,26.70
2018-11-14T18:59:15.344Z,26.67
2018-11-14T19:01:43.035Z,26.63
2018-11-14T19:04:09.765Z,26.53
2018-11-14T19:06:36.513Z,26.49
2018-11-14T19:09:03.223Z,26.58
2018-11-14T19:11:29.883Z,26.59
2018-11-14T19:13:56.667Z,26.58
2018-11-14T19:16:23.464Z,26.54
2018-11-14T19:18:50.141Z,26.53
2018-11-14T19:21:16.858Z,26.51
2018-11-14T19:23:43.510Z,26.51
2018-11-14T19:26:10.185Z,26.48
2018-11-14T19:28:36.886Z,26.46
2018-11-14T19:31:03.594Z,26.47
2018-11-14T19:33:30.296Z,26.47
2018-11-14T19:35:58.030Z,26.43
2018-11-14T19:38:24.667Z,26.46
2018-11-14T19:40:51.516Z,26.44
2018-11-14T19:43:18.235Z,26.41
2018-11-14T19:45:45.002Z,26.38
2018-11-14T19:48:11.746Z,25.87
2018-11-14T19:50:38.544Z,26.57
2018-11-14T19:53:05.235Z,26.66
2018-11-14T19:55:31.935Z,26.60
2018-11-14T19:57:58.645Z,26.68
2018-11-14T20:00:25.610Z,26.59
2018-11-14T20:02:52.254Z,26.41
2018-11-14T20:05:18.965Z,26.37
2018-11-14T20:07:45.613Z,26.35
2018-11-14T20:10:12.472Z,26.27
2018-11-14T20:12:39.110Z,26.22
2018-11-14T20:15:05.755Z,26.22
2018-11-14T20:17:34.716Z,26.21
2018-11-14T20:20:01.372Z,26.25
2018-11-14T20:22:28.026Z,26.24
2018-11-14T20:24:54.800Z,26.24
2018-11-14T20:27:21.628Z,26.24
2018-11-14T20:29:51.601Z,26.28
2018-11-14T20:32:18.247Z,26.26
2018-11-14T20:34:45.067Z,26.25
2018-11-14T20:37:11.796Z,26.28
2018-11-14T20:39:38.395Z,26.27
2018-11-14T20:42:05.193Z,26.25
2018-11-14T20:44:33.502Z,26.27
2018-11-14T20:46:58.573Z,26.29
2018-11-14T20:49:25.297Z,26.23
2018-11-14T20:51:51.955Z,26.23
2018-11-14T20:54:18.662Z,26.24
2018-11-14T20:56:45.313Z,26.23
2018-11-14T20:59:12.003Z,26.22
2018-11-14T21:01:41.760Z,26.25
2018-11-14T21:04:08.467Z,26.28
2018-11-14T21:06:35.139Z,26.25
2018-11-14T21:09:02.015Z,26.30
2018-11-14T21:11:28.753Z,26.28
2018-11-14T21:13:55.424Z,26.24
2018-11-14T21:16:22.239Z,26.21
2018-11-14T21:18:50.270Z,26.21
2018-11-14T21:21:15.663Z,26.23
2018-11-14T21:23:42.325Z,26.26
2018-11-14T21:26:09.040Z,26.24
2018-11-14T21:28:35.734Z,26.24
2018-11-14T21:31:02.443Z,26.26
2018-11-14T21:33:31.755Z,26.27
2018-11-14T21:35:58.486Z,26.28
2018-11-14T21:38:25.285Z,26.29
2018-11-14T21:40:51.910Z,26.22
2018-11-14T21:43:18.671Z,26.25
2018-11-14T21:45:45.422Z,26.24
2018-11-14T21:48:12.086Z,26.23
2018-11-14T21:50:38.856Z,26.27
2018-11-14T21:53:05.616Z,26.27
2018-11-14T21:55:32.221Z,26.28
2018-11-14T21:57:58.993Z,26.27
2018-11-14T22:00:25.660Z,26.27
2018-11-14T22:02:53.455Z,26.26
2018-11-14T22:05:20.148Z,26.27
2018-11-14T22:07:46.900Z,26.23
2018-11-14T22:10:13.589Z,26.25
2018-11-14T22:12:40.277Z,26.27
2018-11-14T22:15:08.455Z,26.27
2018-11-14T22:17:33.795Z,26.27
2018-11-14T22:20:00.591Z,26.32
2018-11-14T22:22:27.518Z,26.29
2018-11-14T22:24:54.195Z,26.31
2018-11-14T22:27:20.937Z,26.30
2018-11-14T22:29:47.622Z,26.29
2018-11-14T22:32:14.404Z,26.28
2018-11-14T22:34:41.113Z,26.34
2018-11-14T22:37:07.834Z,26.36
2018-11-14T22:39:37.439Z,26.34
2018-11-14T22:42:04.243Z,26.31
2018-11-14T22:44:32.287Z,26.33
2018-11-14T22:46:58.821Z,26.36
2018-11-14T22:49:25.525Z,26.36
2018-11-14T22:51:53.685Z,26.31
2018-11-14T22:54:18.980Z,26.37
2018-11-14T22:56:45.670Z,26.36
2018-11-14T22:59:12.435Z,26.37
2018-11-14T23:01:39.127Z,26.37
2018-11-14T23:04:05.940Z,26.37
2018-11-14T23:06:32.634Z,26.38
2018-11-14T23:08:59.319Z,26.39
2018-11-14T23:11:26.087Z,26.37
2018-11-14T23:13:52.774Z,26.38
2018-11-14T23:16:22.431Z,26.40
2018-11-14T23:18:49.226Z,26.39
2018-11-14T23:21:15.933Z,26.38
2018-11-14T23:23:42.670Z,26.38
2018-11-14T23:26:09.373Z,26.37
2018-11-14T23:28:36.058Z,26.41
2018-11-14T23:31:02.812Z,26.45
2018-11-14T23:33:29.553Z,26.37
2018-11-14T23:35:56.385Z,26.43
2018-11-14T23:38:23.077Z,26.40
2018-11-14T23:40:50.025Z,26.40
2018-11-14T23:43:16.764Z,26.43
2018-11-14T23:45:45.600Z,26.41
2018-11-14T23:48:12.289Z,26.48
2018-11-14T23:50:39.032Z,26.44
2018-11-14T23:53:05.733Z,26.44
2018-11-14T23:55:32.779Z,26.45
2018-11-14T23:57:59.592Z,26.45
